sensor_id;sensor_type;location;lat;lon;timestamp;P1;durP1;ratioP1;P2;durP2;ratioP2
52564;SDS011;38460;53.106;7.004;2023-02-28T00:01:16;6.93;;;3.72;;
52564;SDS011;38460;53.106;7.004;2023-02-28T00:03:42;6.70;;;3.58;;
52564;SDS011;38460;53.106;7.004;2023-02-28T00:06:08;6.72;;;3.70;;
52564;SDS011;38460;53.106;7.004;2023-02-28T00:08:34;5.50;;;4.18;;
52564;SDS011;38460;53.106;7.004;2023-02-28T00:11:04;5.45;;;3.40;;
52564;SDS011;38460;53.106;7.004;2023-02-28T00:13:33;10.37;;;3.83;;
52564;SDS011;38460;53.106;7.004;2023-02-28T00:16:01;6.68;;;3.15;;
52564;SDS011;38460;53.106;7.004;2023-02-28T00:18:28;6.93;;;3.45;;
52564;SDS011;38460;53.106;7.004;2023-02-28T00:20:54;5.05;;;3.50;;
52564;SDS011;38460;53.106;7.004;2023-02-28T00:23:20;5.82;;;3.10;;
52564;SDS011;38460;53.106;7.004;2023-02-28T00:25:46;6.30;;;4.57;;
52564;SDS011;38460;53.106;7.004;2023-02-28T00:28:11;8.80;;;3.85;;
52564;SDS011;38460;53.106;7.004;2023-02-28T00:30:37;5.93;;;3.25;;
52564;SDS011;38460;53.106;7.004;2023-02-28T00:33:03;7.05;;;3.97;;
52564;SDS011;38460;53.106;7.004;2023-02-28T00:35:29;6.88;;;3.92;;
52564;SDS011;38460;53.106;7.004;2023-02-28T00:37:54;7.22;;;3.92;;
52564;SDS011;38460;53.106;7.004;2023-02-28T00:40:20;7.18;;;3.38;;
52564;SDS011;38460;53.106;7.004;2023-02-28T00:42:46;8.23;;;3.88;;
52564;SDS011;38460;53.106;7.004;2023-02-28T00:45:12;6.18;;;3.75;;
52564;SDS011;38460;53.106;7.004;2023-02-28T00:47:37;7.30;;;3.88;;
52564;SDS011;38460;53.106;7.004;2023-02-28T00:50:03;6.53;;;4.43;;
52564;SDS011;38460;53.106;7.004;2023-02-28T00:52:30;6.50;;;3.42;;
52564;SDS011;38460;53.106;7.004;2023-02-28T00:54:56;6.57;;;3.97;;
52564;SDS011;38460;53.106;7.004;2023-02-28T00:57:22;8.32;;;4.45;;
52564;SDS011;38460;53.106;7.004;2023-02-28T00:59:47;7.93;;;3.83;;
52564;SDS011;38460;53.106;7.004;2023-02-28T01:02:13;7.80;;;4.55;;
52564;SDS011;38460;53.106;7.004;2023-02-28T01:04:39;9.55;;;4.47;;
52564;SDS011;38460;53.106;7.004;2023-02-28T01:07:05;7.75;;;3.85;;
52564;SDS011;38460;53.106;7.004;2023-02-28T01:09:30;6.43;;;3.65;;
52564;SDS011;38460;53.106;7.004;2023-02-28T01:11:56;8.15;;;3.50;;
52564;SDS011;38460;53.106;7.004;2023-02-28T01:14:22;7.78;;;3.95;;
52564;SDS011;38460;53.106;7.004;2023-02-28T01:16:48;5.70;;;3.17;;
52564;SDS011;38460;53.106;7.004;2023-02-28T01:19:13;7.38;;;3.83;;
52564;SDS011;38460;53.106;7.004;2023-02-28T01:21:39;6.57;;;3.97;;
52564;SDS011;38460;53.106;7.004;2023-02-28T01:24:05;7.07;;;4.10;;
52564;SDS011;38460;53.106;7.004;2023-02-28T01:26:32;7.38;;;4.07;;
52564;SDS011;38460;53.106;7.004;2023-02-28T01:28:58;7.65;;;4.05;;
52564;SDS011;38460;53.106;7.004;2023-02-28T01:31:24;6.65;;;4.13;;
52564;SDS011;38460;53.106;7.004;2023-02-28T01:33:50;8.32;;;3.42;;
52564;SDS011;38460;53.106;7.004;2023-02-28T01:36:18;5.35;;;3.92;;
52564;SDS011;38460;53.106;7.004;2023-02-28T01:38:48;5.30;;;3.55;;
52564;SDS011;38460;53.106;7.004;2023-02-28T01:46:10;5.00;;;3.38;;
52564;SDS011;38460;53.106;7.004;2023-02-28T01:48:42;7.10;;;3.45;;
52564;SDS011;38460;53.106;7.004;2023-02-28T01:51:18;7.93;;;4.57;;
52564;SDS011;38460;53.106;7.004;2023-02-28T01:53:48;7.10;;;3.90;;
52564;SDS011;38460;53.106;7.004;2023-02-28T01:56:22;7.82;;;3.95;;
52564;SDS011;38460;53.106;7.004;2023-02-28T01:58:51;7.22;;;4.35;;
52564;SDS011;38460;53.106;7.004;2023-02-28T02:01:19;7.85;;;4.15;;
52564;SDS011;38460;53.106;7.004;2023-02-28T02:03:48;8.35;;;4.35;;
52564;SDS011;38460;53.106;7.004;2023-02-28T02:06:40;7.22;;;4.32;;
52564;SDS011;38460;53.106;7.004;2023-02-28T02:09:09;7.25;;;4.70;;
52564;SDS011;38460;53.106;7.004;2023-02-28T02:11:35;7.57;;;3.75;;
52564;SDS011;38460;53.106;7.004;2023-02-28T02:20:16;8.52;;;4.82;;
52564;SDS011;38460;53.106;7.004;2023-02-28T02:22:21;9.82;;;5.00;;
52564;SDS011;38460;53.106;7.004;2023-02-28T02:33:29;9.07;;;4.70;;
52564;SDS011;38460;53.106;7.004;2023-02-28T02:41:49;8.98;;;5.57;;
52564;SDS011;38460;53.106;7.004;2023-02-28T02:44:21;12.00;;;5.22;;
52564;SDS011;38460;53.106;7.004;2023-02-28T02:47:01;6.65;;;4.47;;
52564;SDS011;38460;53.106;7.004;2023-02-28T02:49:32;10.60;;;6.03;;
52564;SDS011;38460;53.106;7.004;2023-02-28T02:52:02;11.65;;;5.20;;
52564;SDS011;38460;53.106;7.004;2023-02-28T02:57:02;7.25;;;4.82;;
52564;SDS011;38460;53.106;7.004;2023-02-28T02:59:30;11.52;;;5.22;;
52564;SDS011;38460;53.106;7.004;2023-02-28T03:01:59;8.77;;;5.03;;
52564;SDS011;38460;53.106;7.004;2023-02-28T03:04:28;8.15;;;4.72;;
52564;SDS011;38460;53.106;7.004;2023-02-28T03:06:58;8.63;;;5.10;;
52564;SDS011;38460;53.106;7.004;2023-02-28T03:09:25;7.68;;;4.95;;
52564;SDS011;38460;53.106;7.004;2023-02-28T03:11:52;9.02;;;5.10;;
52564;SDS011;38460;53.106;7.004;2023-02-28T03:25:26;7.70;;;5.28;;
52564;SDS011;38460;53.106;7.004;2023-02-28T03:29:10;10.25;;;5.65;;
52564;SDS011;38460;53.106;7.004;2023-02-28T03:31:07;8.93;;;4.70;;
52564;SDS011;38460;53.106;7.004;2023-02-28T03:33:43;7.07;;;4.78;;
52564;SDS011;38460;53.106;7.004;2023-02-28T03:36:20;7.35;;;4.68;;
52564;SDS011;38460;53.106;7.004;2023-02-28T03:39:05;8.02;;;4.72;;
52564;SDS011;38460;53.106;7.004;2023-02-28T03:41:45;8.68;;;4.90;;
52564;SDS011;38460;53.106;7.004;2023-02-28T03:44:20;8.77;;;5.50;;
52564;SDS011;38460;53.106;7.004;2023-02-28T03:50:21;7.72;;;4.47;;
52564;SDS011;38460;53.106;7.004;2023-02-28T03:55:52;7.10;;;4.38;;
52564;SDS011;38460;53.106;7.004;2023-02-28T04:01:36;9.15;;;5.47;;
52564;SDS011;38460;53.106;7.004;2023-02-28T04:04:03;8.02;;;4.55;;
52564;SDS011;38460;53.106;7.004;2023-02-28T04:06:31;6.18;;;4.60;;
52564;SDS011;38460;53.106;7.004;2023-02-28T04:08:58;6.85;;;4.55;;
52564;SDS011;38460;53.106;7.004;2023-02-28T04:14:04;8.05;;;4.65;;
52564;SDS011;38460;53.106;7.004;2023-02-28T04:16:31;7.53;;;4.78;;
52564;SDS011;38460;53.106;7.004;2023-02-28T04:18:58;7.22;;;4.47;;
52564;SDS011;38460;53.106;7.004;2023-02-28T04:21:27;7.78;;;4.97;;
52564;SDS011;38460;53.106;7.004;2023-02-28T04:23:54;7.55;;;5.47;;
52564;SDS011;38460;53.106;7.004;2023-02-28T04:26:20;8.82;;;5.05;;
52564;SDS011;38460;53.106;7.004;2023-02-28T04:28:46;8.30;;;5.35;;
52564;SDS011;38460;53.106;7.004;2023-02-28T04:31:11;10.85;;;6.53;;
52564;SDS011;38460;53.106;7.004;2023-02-28T04:33:37;8.70;;;5.70;;
52564;SDS011;38460;53.106;7.004;2023-02-28T04:36:04;9.63;;;5.68;;
52564;SDS011;38460;53.106;7.004;2023-02-28T04:38:38;9.52;;;5.43;;
52564;SDS011;38460;53.106;7.004;2023-02-28T04:41:04;8.10;;;5.78;;
52564;SDS011;38460;53.106;7.004;2023-02-28T04:43:30;7.93;;;5.15;;
52564;SDS011;38460;53.106;7.004;2023-02-28T04:45:57;7.55;;;4.97;;
52564;SDS011;38460;53.106;7.004;2023-02-28T04:48:29;11.32;;;5.75;;
52564;SDS011;38460;53.106;7.004;2023-02-28T04:51:00;6.88;;;4.97;;
52564;SDS011;38460;53.106;7.004;2023-02-28T04:53:29;8.60;;;5.53;;
52564;SDS011;38460;53.106;7.004;2023-02-28T04:55:56;8.32;;;5.40;;
52564;SDS011;38460;53.106;7.004;2023-02-28T04:58:22;8.32;;;5.75;;
52564;SDS011;38460;53.106;7.004;2023-02-28T05:00:49;9.52;;;5.45;;
52564;SDS011;38460;53.106;7.004;2023-02-28T05:03:15;10.88;;;5.25;;
52564;SDS011;38460;53.106;7.004;2023-02-28T05:05:41;9.88;;;6.05;;
52564;SDS011;38460;53.106;7.004;2023-02-28T05:08:06;8.68;;;5.97;;
52564;SDS011;38460;53.106;7.004;2023-02-28T05:10:32;9.85;;;6.03;;
52564;SDS011;38460;53.106;7.004;2023-02-28T05:12:58;11.70;;;6.97;;
52564;SDS011;38460;53.106;7.004;2023-02-28T05:15:24;13.15;;;8.55;;
52564;SDS011;38460;53.106;7.004;2023-02-28T05:17:50;15.80;;;9.98;;
52564;SDS011;38460;53.106;7.004;2023-02-28T05:20:16;10.15;;;7.45;;
52564;SDS011;38460;53.106;7.004;2023-02-28T05:22:42;12.60;;;8.18;;
52564;SDS011;38460;53.106;7.004;2023-02-28T05:25:16;13.63;;;8.23;;
52564;SDS011;38460;53.106;7.004;2023-02-28T05:27:43;14.73;;;7.30;;
52564;SDS011;38460;53.106;7.004;2023-02-28T05:30:09;10.45;;;6.47;;
52564;SDS011;38460;53.106;7.004;2023-02-28T05:32:39;11.85;;;6.93;;
52564;SDS011;38460;53.106;7.004;2023-02-28T05:35:09;12.73;;;7.55;;
52564;SDS011;38460;53.106;7.004;2023-02-28T05:37:36;12.68;;;7.13;;
52564;SDS011;38460;53.106;7.004;2023-02-28T05:40:02;12.52;;;7.32;;
52564;SDS011;38460;53.106;7.004;2023-02-28T05:42:35;11.13;;;7.65;;
52564;SDS011;38460;53.106;7.004;2023-02-28T05:45:01;12.60;;;7.88;;
52564;SDS011;38460;53.106;7.004;2023-02-28T05:47:27;12.27;;;7.65;;
52564;SDS011;38460;53.106;7.004;2023-02-28T05:49:53;11.73;;;7.78;;
52564;SDS011;38460;53.106;7.004;2023-02-28T05:52:19;14.43;;;8.27;;
52564;SDS011;38460;53.106;7.004;2023-02-28T05:54:45;11.07;;;7.35;;
52564;SDS011;38460;53.106;7.004;2023-02-28T05:57:11;14.18;;;8.07;;
52564;SDS011;38460;53.106;7.004;2023-02-28T05:59:37;10.43;;;6.95;;
52564;SDS011;38460;53.106;7.004;2023-02-28T06:02:05;9.63;;;7.22;;
52564;SDS011;38460;53.106;7.004;2023-02-28T06:04:35;11.65;;;6.50;;
52564;SDS011;38460;53.106;7.004;2023-02-28T06:07:01;11.43;;;6.85;;
52564;SDS011;38460;53.106;7.004;2023-02-28T06:09:27;12.75;;;7.50;;
52564;SDS011;38460;53.106;7.004;2023-02-28T06:11:54;14.65;;;8.23;;
52564;SDS011;38460;53.106;7.004;2023-02-28T06:14:20;13.50;;;8.35;;
52564;SDS011;38460;53.106;7.004;2023-02-28T06:16:46;11.45;;;7.88;;
52564;SDS011;38460;53.106;7.004;2023-02-28T06:19:12;13.23;;;9.02;;
52564;SDS011;38460;53.106;7.004;2023-02-28T06:21:38;13.90;;;8.00;;
52564;SDS011;38460;53.106;7.004;2023-02-28T06:24:04;15.35;;;9.15;;
52564;SDS011;38460;53.106;7.004;2023-02-28T06:26:30;13.02;;;8.52;;
52564;SDS011;38460;53.106;7.004;2023-02-28T06:28:56;13.77;;;8.48;;
52564;SDS011;38460;53.106;7.004;2023-02-28T06:31:22;16.58;;;9.93;;
52564;SDS011;38460;53.106;7.004;2023-02-28T06:33:49;17.92;;;8.80;;
52564;SDS011;38460;53.106;7.004;2023-02-28T06:36:15;14.48;;;8.70;;
52564;SDS011;38460;53.106;7.004;2023-02-28T06:38:42;13.45;;;8.48;;
52564;SDS011;38460;53.106;7.004;2023-02-28T06:41:09;12.10;;;7.78;;
52564;SDS011;38460;53.106;7.004;2023-02-28T06:43:36;12.98;;;8.05;;
52564;SDS011;38460;53.106;7.004;2023-02-28T06:46:05;13.60;;;8.45;;
52564;SDS011;38460;53.106;7.004;2023-02-28T06:48:33;15.38;;;8.43;;
52564;SDS011;38460;53.106;7.004;2023-02-28T06:51:06;16.42;;;9.80;;
52564;SDS011;38460;53.106;7.004;2023-02-28T06:53:38;11.20;;;7.57;;
52564;SDS011;38460;53.106;7.004;2023-02-28T06:56:08;13.40;;;8.57;;
52564;SDS011;38460;53.106;7.004;2023-02-28T06:58:36;15.23;;;7.90;;
52564;SDS011;38460;53.106;7.004;2023-02-28T07:01:03;13.40;;;8.23;;
52564;SDS011;38460;53.106;7.004;2023-02-28T07:03:29;14.20;;;9.00;;
52564;SDS011;38460;53.106;7.004;2023-02-28T07:05:55;18.98;;;9.35;;
52564;SDS011;38460;53.106;7.004;2023-02-28T07:08:22;12.68;;;8.88;;
52564;SDS011;38460;53.106;7.004;2023-02-28T07:10:55;13.55;;;8.65;;
52564;SDS011;38460;53.106;7.004;2023-02-28T07:13:22;14.10;;;8.45;;
52564;SDS011;38460;53.106;7.004;2023-02-28T07:15:54;13.32;;;8.32;;
52564;SDS011;38460;53.106;7.004;2023-02-28T07:18:26;15.13;;;9.80;;
52564;SDS011;38460;53.106;7.004;2023-02-28T07:20:52;20.00;;;11.27;;
52564;SDS011;38460;53.106;7.004;2023-02-28T07:23:18;16.15;;;9.65;;
52564;SDS011;38460;53.106;7.004;2023-02-28T07:25:44;16.40;;;11.35;;
52564;SDS011;38460;53.106;7.004;2023-02-28T07:28:10;21.60;;;10.93;;
52564;SDS011;38460;53.106;7.004;2023-02-28T07:30:37;16.42;;;10.43;;
52564;SDS011;38460;53.106;7.004;2023-02-28T07:33:03;22.10;;;11.30;;
52564;SDS011;38460;53.106;7.004;2023-02-28T07:35:29;20.15;;;10.88;;
52564;SDS011;38460;53.106;7.004;2023-02-28T07:37:56;21.73;;;11.63;;
52564;SDS011;38460;53.106;7.004;2023-02-28T07:40:22;17.90;;;10.70;;
52564;SDS011;38460;53.106;7.004;2023-02-28T07:42:48;17.38;;;10.25;;
52564;SDS011;38460;53.106;7.004;2023-02-28T07:45:14;18.23;;;11.35;;
52564;SDS011;38460;53.106;7.004;2023-02-28T07:47:40;17.23;;;10.60;;
52564;SDS011;38460;53.106;7.004;2023-02-28T07:50:07;18.05;;;10.43;;
52564;SDS011;38460;53.106;7.004;2023-02-28T07:52:34;16.98;;;9.88;;
52564;SDS011;38460;53.106;7.004;2023-02-28T07:55:01;18.95;;;10.65;;
52564;SDS011;38460;53.106;7.004;2023-02-28T07:57:26;19.77;;;11.00;;
52564;SDS011;38460;53.106;7.004;2023-02-28T07:59:52;17.60;;;9.30;;
52564;SDS011;38460;53.106;7.004;2023-02-28T08:02:18;14.75;;;10.10;;
52564;SDS011;38460;53.106;7.004;2023-02-28T08:04:44;17.27;;;10.23;;
52564;SDS011;38460;53.106;7.004;2023-02-28T08:07:12;19.33;;;12.00;;
52564;SDS011;38460;53.106;7.004;2023-02-28T08:09:38;15.70;;;10.77;;
52564;SDS011;38460;53.106;7.004;2023-02-28T08:12:05;18.05;;;12.45;;
52564;SDS011;38460;53.106;7.004;2023-02-28T08:14:32;19.85;;;11.98;;
52564;SDS011;38460;53.106;7.004;2023-02-28T08:16:59;20.17;;;12.55;;
52564;SDS011;38460;53.106;7.004;2023-02-28T08:19:25;19.20;;;11.32;;
52564;SDS011;38460;53.106;7.004;2023-02-28T08:21:50;24.15;;;13.60;;
52564;SDS011;38460;53.106;7.004;2023-02-28T08:24:16;19.63;;;12.20;;
52564;SDS011;38460;53.106;7.004;2023-02-28T08:26:42;20.25;;;11.70;;
52564;SDS011;38460;53.106;7.004;2023-02-28T08:29:07;17.88;;;11.10;;
52564;SDS011;38460;53.106;7.004;2023-02-28T08:31:33;23.30;;;12.65;;
52564;SDS011;38460;53.106;7.004;2023-02-28T08:34:04;21.75;;;13.32;;
52564;SDS011;38460;53.106;7.004;2023-02-28T08:36:31;20.80;;;12.57;;
52564;SDS011;38460;53.106;7.004;2023-02-28T08:38:56;18.98;;;11.73;;
52564;SDS011;38460;53.106;7.004;2023-02-28T08:41:23;18.77;;;11.52;;
52564;SDS011;38460;53.106;7.004;2023-02-28T08:43:48;18.08;;;12.00;;
52564;SDS011;38460;53.106;7.004;2023-02-28T08:46:14;20.10;;;11.52;;
52564;SDS011;38460;53.106;7.004;2023-02-28T08:48:40;17.35;;;11.85;;
52564;SDS011;38460;53.106;7.004;2023-02-28T08:51:07;19.95;;;11.02;;
52564;SDS011;38460;53.106;7.004;2023-02-28T08:53:35;20.75;;;10.00;;
52564;SDS011;38460;53.106;7.004;2023-02-28T08:56:06;15.82;;;9.05;;
52564;SDS011;38460;53.106;7.004;2023-02-28T08:58:33;13.32;;;9.73;;
52564;SDS011;38460;53.106;7.004;2023-02-28T09:01:00;14.80;;;9.90;;
52564;SDS011;38460;53.106;7.004;2023-02-28T09:05:58;16.02;;;9.00;;
52564;SDS011;38460;53.106;7.004;2023-02-28T09:08:27;17.10;;;9.57;;
52564;SDS011;38460;53.106;7.004;2023-02-28T09:10:55;17.13;;;10.73;;
52564;SDS011;38460;53.106;7.004;2023-02-28T09:13:22;15.90;;;9.80;;
52564;SDS011;38460;53.106;7.004;2023-02-28T09:15:49;15.60;;;9.77;;
52564;SDS011;38460;53.106;7.004;2023-02-28T09:18:15;18.23;;;10.43;;
52564;SDS011;38460;53.106;7.004;2023-02-28T09:20:41;13.18;;;8.93;;
52564;SDS011;38460;53.106;7.004;2023-02-28T09:23:09;14.93;;;9.88;;
52564;SDS011;38460;53.106;7.004;2023-02-28T09:25:36;16.65;;;9.57;;
52564;SDS011;38460;53.106;7.004;2023-02-28T09:28:03;15.07;;;9.32;;
52564;SDS011;38460;53.106;7.004;2023-02-28T09:30:29;14.70;;;8.85;;
52564;SDS011;38460;53.106;7.004;2023-02-28T09:32:55;18.65;;;9.48;;
52564;SDS011;38460;53.106;7.004;2023-02-28T09:35:22;13.45;;;9.80;;
52564;SDS011;38460;53.106;7.004;2023-02-28T09:37:49;17.98;;;10.32;;
52564;SDS011;38460;53.106;7.004;2023-02-28T09:40:20;16.63;;;10.20;;
52564;SDS011;38460;53.106;7.004;2023-02-28T09:42:49;18.92;;;10.95;;
52564;SDS011;38460;53.106;7.004;2023-02-28T09:45:35;13.63;;;9.57;;
52564;SDS011;38460;53.106;7.004;2023-02-28T09:48:03;18.13;;;11.45;;
52564;SDS011;38460;53.106;7.004;2023-02-28T09:50:40;15.55;;;11.05;;
52564;SDS011;38460;53.106;7.004;2023-02-28T09:53:15;14.48;;;9.70;;
52564;SDS011;38460;53.106;7.004;2023-02-28T09:55:56;14.57;;;9.40;;
52564;SDS011;38460;53.106;7.004;2023-02-28T10:00:58;15.80;;;10.20;;
52564;SDS011;38460;53.106;7.004;2023-02-28T10:03:30;13.25;;;9.55;;
52564;SDS011;38460;53.106;7.004;2023-02-28T10:06:10;18.88;;;9.52;;
52564;SDS011;38460;53.106;7.004;2023-02-28T10:08:44;13.13;;;9.27;;
52564;SDS011;38460;53.106;7.004;2023-02-28T10:11:23;13.30;;;8.52;;
52564;SDS011;38460;53.106;7.004;2023-02-28T10:21:42;12.13;;;8.80;;
52564;SDS011;38460;53.106;7.004;2023-02-28T10:27:01;13.63;;;8.13;;
52564;SDS011;38460;53.106;7.004;2023-02-28T10:29:42;9.60;;;6.90;;
52564;SDS011;38460;53.106;7.004;2023-02-28T10:32:13;10.85;;;6.90;;
52564;SDS011;38460;53.106;7.004;2023-02-28T10:34:41;13.43;;;7.97;;
52564;SDS011;38460;53.106;7.004;2023-02-28T10:37:07;13.70;;;8.23;;
52564;SDS011;38460;53.106;7.004;2023-02-28T10:39:35;12.75;;;8.38;;
52564;SDS011;38460;53.106;7.004;2023-02-28T10:42:04;14.65;;;8.38;;
52564;SDS011;38460;53.106;7.004;2023-02-28T10:44:30;12.82;;;7.78;;
52564;SDS011;38460;53.106;7.004;2023-02-28T10:46:56;11.23;;;7.80;;
52564;SDS011;38460;53.106;7.004;2023-02-28T10:49:24;9.95;;;5.78;;
52564;SDS011;38460;53.106;7.004;2023-02-28T10:51:56;8.38;;;5.72;;
52564;SDS011;38460;53.106;7.004;2023-02-28T10:54:31;10.07;;;6.90;;
52564;SDS011;38460;53.106;7.004;2023-02-28T10:59:53;8.90;;;6.25;;
52564;SDS011;38460;53.106;7.004;2023-02-28T11:02:41;9.57;;;5.78;;
52564;SDS011;38460;53.106;7.004;2023-02-28T11:05:23;7.63;;;5.03;;
52564;SDS011;38460;53.106;7.004;2023-02-28T11:07:54;7.45;;;5.13;;
52564;SDS011;38460;53.106;7.004;2023-02-28T11:10:37;9.32;;;5.25;;
52564;SDS011;38460;53.106;7.004;2023-02-28T11:13:03;7.90;;;4.85;;
52564;SDS011;38460;53.106;7.004;2023-02-28T11:15:31;8.68;;;6.22;;
52564;SDS011;38460;53.106;7.004;2023-02-28T11:18:04;11.20;;;6.20;;
52564;SDS011;38460;53.106;7.004;2023-02-28T11:20:32;7.45;;;4.97;;
52564;SDS011;38460;53.106;7.004;2023-02-28T11:23:00;7.82;;;4.70;;
52564;SDS011;38460;53.106;7.004;2023-02-28T11:25:35;7.18;;;5.53;;
52564;SDS011;38460;53.106;7.004;2023-02-28T11:28:08;6.93;;;4.35;;
52564;SDS011;38460;53.106;7.004;2023-02-28T11:38:46;11.00;;;4.88;;
52564;SDS011;38460;53.106;7.004;2023-02-28T11:41:21;10.25;;;5.28;;
52564;SDS011;38460;53.106;7.004;2023-02-28T11:46:41;7.20;;;5.07;;
52564;SDS011;38460;53.106;7.004;2023-02-28T11:49:38;6.97;;;5.20;;
52564;SDS011;38460;53.106;7.004;2023-02-28T11:52:21;8.60;;;4.57;;
52564;SDS011;38460;53.106;7.004;2023-02-28T12:06:22;8.45;;;4.65;;
52564;SDS011;38460;53.106;7.004;2023-02-28T12:18:21;7.25;;;4.85;;
52564;SDS011;38460;53.106;7.004;2023-02-28T12:20:37;7.07;;;5.40;;
52564;SDS011;38460;53.106;7.004;2023-02-28T12:23:26;9.30;;;5.35;;
52564;SDS011;38460;53.106;7.004;2023-02-28T12:28:53;9.75;;;5.45;;
52564;SDS011;38460;53.106;7.004;2023-02-28T12:31:26;9.10;;;6.10;;
52564;SDS011;38460;53.106;7.004;2023-02-28T12:34:05;8.65;;;5.05;;
52564;SDS011;38460;53.106;7.004;2023-02-28T12:36:37;7.40;;;5.55;;
52564;SDS011;38460;53.106;7.004;2023-02-28T12:39:08;7.35;;;5.10;;
52564;SDS011;38460;53.106;7.004;2023-02-28T12:41:48;10.65;;;5.47;;
52564;SDS011;38460;53.106;7.004;2023-02-28T12:44:27;8.95;;;6.00;;
52564;SDS011;38460;53.106;7.004;2023-02-28T12:47:17;7.22;;;5.55;;
52564;SDS011;38460;53.106;7.004;2023-02-28T12:49:56;6.93;;;5.10;;
52564;SDS011;38460;53.106;7.004;2023-02-28T12:55:27;6.38;;;4.75;;
52564;SDS011;38460;53.106;7.004;2023-02-28T12:58:08;7.60;;;5.13;;
52564;SDS011;38460;53.106;7.004;2023-02-28T13:01:15;5.53;;;4.50;;
52564;SDS011;38460;53.106;7.004;2023-02-28T13:09:25;6.22;;;4.75;;
52564;SDS011;38460;53.106;7.004;2023-02-28T13:11:51;6.75;;;5.28;;
52564;SDS011;38460;53.106;7.004;2023-02-28T13:14:20;7.30;;;4.53;;
52564;SDS011;38460;53.106;7.004;2023-02-28T13:19:36;6.28;;;4.93;;
52564;SDS011;38460;53.106;7.004;2023-02-28T13:28:11;8.75;;;5.68;;
52564;SDS011;38460;53.106;7.004;2023-02-28T13:31:02;10.32;;;6.43;;
52564;SDS011;38460;53.106;7.004;2023-02-28T13:38:42;7.82;;;6.45;;
52564;SDS011;38460;53.106;7.004;2023-02-28T13:44:36;7.65;;;5.28;;
52564;SDS011;38460;53.106;7.004;2023-02-28T14:05:19;7.20;;;4.63;;
52564;SDS011;38460;53.106;7.004;2023-02-28T14:07:52;6.35;;;4.18;;
52564;SDS011;38460;53.106;7.004;2023-02-28T14:10:22;8.20;;;5.03;;
52564;SDS011;38460;53.106;7.004;2023-02-28T14:12:56;6.60;;;4.68;;
52564;SDS011;38460;53.106;7.004;2023-02-28T14:17:59;8.75;;;5.90;;
52564;SDS011;38460;53.106;7.004;2023-02-28T14:20:29;8.80;;;5.70;;
52564;SDS011;38460;53.106;7.004;2023-02-28T14:23:33;7.20;;;6.22;;
52564;SDS011;38460;53.106;7.004;2023-02-28T14:25:54;7.75;;;5.90;;
52564;SDS011;38460;53.106;7.004;2023-02-28T14:28:45;10.45;;;5.50;;
52564;SDS011;38460;53.106;7.004;2023-02-28T14:37:10;8.02;;;5.72;;
52564;SDS011;38460;53.106;7.004;2023-02-28T14:39:41;7.82;;;5.90;;
52564;SDS011;38460;53.106;7.004;2023-02-28T14:45:19;9.73;;;5.38;;
52564;SDS011;38460;53.106;7.004;2023-02-28T14:47:46;6.95;;;4.78;;
52564;SDS011;38460;53.106;7.004;2023-02-28T14:50:18;5.55;;;4.47;;
52564;SDS011;38460;53.106;7.004;2023-02-28T14:52:45;6.13;;;4.38;;
52564;SDS011;38460;53.106;7.004;2023-02-28T14:55:16;6.75;;;4.30;;
52564;SDS011;38460;53.106;7.004;2023-02-28T14:57:55;8.25;;;4.28;;
52564;SDS011;38460;53.106;7.004;2023-02-28T15:00:32;6.65;;;4.55;;
52564;SDS011;38460;53.106;7.004;2023-02-28T15:03:17;7.15;;;4.95;;
52564;SDS011;38460;53.106;7.004;2023-02-28T15:05:59;6.45;;;4.28;;
52564;SDS011;38460;53.106;7.004;2023-02-28T15:08:27;5.80;;;4.40;;
52564;SDS011;38460;53.106;7.004;2023-02-28T15:10:58;7.20;;;4.72;;
52564;SDS011;38460;53.106;7.004;2023-02-28T15:18:43;6.35;;;4.13;;
52564;SDS011;38460;53.106;7.004;2023-02-28T15:21:18;6.15;;;3.60;;
52564;SDS011;38460;53.106;7.004;2023-02-28T15:23:55;6.95;;;3.80;;
52564;SDS011;38460;53.106;7.004;2023-02-28T15:26:30;9.75;;;5.38;;
52564;SDS011;38460;53.106;7.004;2023-02-28T15:29:00;4.90;;;4.00;;
52564;SDS011;38460;53.106;7.004;2023-02-28T15:31:31;7.68;;;4.97;;
52564;SDS011;38460;53.106;7.004;2023-02-28T15:34:04;9.10;;;6.00;;
52564;SDS011;38460;53.106;7.004;2023-02-28T15:36:32;6.88;;;5.30;;
52564;SDS011;38460;53.106;7.004;2023-02-28T15:39:03;7.70;;;5.00;;
52564;SDS011;38460;53.106;7.004;2023-02-28T15:41:44;7.57;;;5.70;;
52564;SDS011;38460;53.106;7.004;2023-02-28T15:44:25;7.97;;;5.15;;
52564;SDS011;38460;53.106;7.004;2023-02-28T15:47:04;7.65;;;5.63;;
52564;SDS011;38460;53.106;7.004;2023-02-28T15:50:08;7.75;;;5.90;;
